• Join FlightAware (Why Join?)
  • Login
  • US Flag 
08:41AM EDT


 

Airport Tracker/Info


-or-


 

Live Flight TrackerFlight Track Log ✈ N340KG ✈ 11-Jul-2013 ✈ KBNA - KBHM

Flight Track Log - Related Links

Times and Time Zones

All times are in EDT time to prevent confusion due to time zone crossing. See the N340KG flight status page for this flight to view local times or setup timezone preferences in your user account.

Time Position Orientation Groundspeed Altitude Reporting Facility
EDT Latitude Longitude Course Direction KTS MPH feet Rate Location/Type
07:18PM 36.1167 -86.6833 68° East 113 130 1,100  Level Nashville TRACON
07:19PM 36.1333 -86.6333 68° East 128 147 2,100 900 Climbing Nashville TRACON
07:20PM 36.1333 -86.5833 90° East 150 173 2,900 840 Climbing Nashville TRACON
07:21PM 36.1167 -86.5333 112° Southeast 153 176 3,700 900 Climbing Nashville TRACON
07:22PM 36.1167 -86.4833 90° East 151 174 4,700 1,020 Climbing Nashville TRACON
07:23PM 36.0833 -86.4667 158° South 151 174 5,900 1,020 Climbing Nashville TRACON
07:24PM 36.0500 -86.4667 180° South 156 180 6,800 900 Climbing Nashville TRACON
07:25PM 36.0000 -86.4833 195° South 159 183 7,700 900 Climbing Nashville TRACON
07:26PM 35.9500 -86.4833 180° South 157 181 8,700 960 Climbing Nashville TRACON
07:27PM 35.9167 -86.5000 202° Southwest 155 178 9,700 960 Climbing Nashville TRACON
07:28PM 35.8667 -86.5167 195° South 155 178 10,700 900 Climbing Nashville TRACON
07:29PM 35.8144 -86.5531 209° Southwest 154 177 12,000 780 Climbing Memphis Center
07:30PM 35.7669 -86.5628 189° South 164 189 12,700 600 Climbing Memphis Center
07:31PM 35.7147 -86.5653 182° South 183 211 13,300 600 Climbing Memphis Center
07:32PM 35.6606 -86.5653 180° South 193 222 13,900 360 Climbing Memphis Center
07:33PM 35.6061 -86.5525 169° South 199 229 14,100 60 Climbing Memphis Center
07:34PM 35.5472 -86.5372 168° South 204 235 14,100  Level Memphis Center
07:35PM 35.4903 -86.5219 168° South 209 241 14,100  Level Memphis Center
07:36PM 35.4314 -86.5069 168° South 209 241 14,100  Level Memphis Center
07:37PM 35.3747 -86.4892 166° South 209 241 14,100  Level Memphis Center
07:38PM 35.3261 -86.4736 165° South 209 241 14,100  Level Memphis Center
07:39PM 35.2692 -86.4508 162° South 209 241 14,100  Level Memphis Center
07:40PM 35.2142 -86.4253 159° South 209 241 14,100  Level Memphis Center
07:41PM 35.1589 -86.3975 158° South 214 246 14,100  Level Memphis Center
07:42PM 35.1022 -86.3850 170° South 214 246 14,100  Level Memphis Center
07:43PM 35.0389 -86.3650 166° South 214 246 14,100  Level Memphis Center
07:44PM 34.9825 -86.3578 174° South 209 241 14,100  Level Memphis Center
07:45PM 34.9197 -86.3531 176° South 209 241 14,100  Level Memphis Center
07:46PM 34.8592 -86.3533 180° South 216 249 14,100  Level Memphis Center
07:47PM 34.8050 -86.3533 180° South 216 249 14,100  Level Memphis Center
07:48PM 34.7472 -86.3714 194° South 216 249 14,100  Level Memphis Center
07:49PM 34.6914 -86.3867 193° South 216 249 14,100  Level Memphis Center
07:50PM 34.6294 -86.4072 195° South 222 255 14,100  Level Memphis Center
07:51PM 34.5736 -86.4250 195° South 222 255 14,100  Level Memphis Center
07:52PM 34.5158 -86.4453 196° South 222 255 14,100  Level Memphis Center
07:53PM 34.4600 -86.4628 194° South 222 255 14,100  Level Memphis Center
07:54PM 34.4044 -86.4833 197° South 220 253 14,100  Level Atlanta Center
07:55PM 34.3542 -86.4944 190° South 207 238 14,100 -240 Level Atlanta Center
07:56PM 34.2953 -86.5156 196° South 207 238 13,700 -660 Descending Atlanta Center
07:57PM 34.2322 -86.5364 195° South 220 253 12,800 -900 Descending Atlanta Center
07:58PM 34.1672 -86.5569 195° South 234 269 12,000 -840 Descending Atlanta Center
07:59PM 34.0997 -86.5850 199° South 235 270 11,200 -480 Descending Atlanta Center
08:00PM 34.0453 -86.5983 191° South 239 275 11,100 -60 Descending Atlanta Center
08:01PM 33.9864 -86.6167 194° South 233 268 11,100 -180 Level Atlanta Center
08:02PM 33.9317 -86.6350 196° South 222 255 10,800 -480 Descending Atlanta Center
08:03PM 33.8689 -86.6533 194° South 227 261 10,200 -1,320 Descending Atlanta Center
08:04PM 33.8036 -86.6764 196° South 232 267 8,300 -2,400 Descending Atlanta Center
08:05PM 33.7322 -86.6992 195° South 243 280 5,400 -1,740 Descending Atlanta Center
08:06PM 33.6792 -86.7297 206° Southwest 241 277 4,900 -420 Descending Atlanta Center
08:07PM 33.6331 -86.7458 196° South 207 238 4,600 -900 Descending Atlanta Center
08:08PM 33.5828 -86.7567 190° South 174 200 3,100 -1,440 Descending Atlanta Center
08:10PM 33.5850 -86.7494 70° East 126 145 1,200 -1,320 Descending Atlanta Center
08:12PM 33.5639 -86.7523 196° South  Level Estimated
08:19PM 33.5639 -86.7523 196° South  Level Estimated